You are not logged in, Click here to log in
ICAO: KJFK Country: 美國 紐約市
Latitude: 40.6398 Longitude: -73.7787
Total Arrivals: 24 Total Departures: 21
Latest Arrival: G76182 (CYYZ-KJFK)Jason. Li Latest Departure: A2A290K (KJFK-KDCA)Arthur. Kung
Scenery:
METAR : KJFK 261131Z 27009KT 10SM BKN013 BKN100 BKN250 19/17 A2995 RMK AO2 T01890167

約翰·甘迺迪國際機場JFK